createdAt,value
2019-02-11T00:01:59.587Z,95057.30
2019-02-11T00:04:26.623Z,95067.14
2019-02-11T00:06:53.669Z,95065.52
2019-02-11T00:09:20.708Z,95097.53
2019-02-11T00:11:47.745Z,95094.86
2019-02-11T00:14:14.796Z,95112.29
2019-02-11T00:16:41.839Z,95108.75
2019-02-11T00:19:09.080Z,95111.59
2019-02-11T00:21:36.095Z,95115.81
2019-02-11T00:24:03.153Z,95102.47
2019-02-11T00:26:30.189Z,95101.43
2019-02-11T00:28:57.248Z,95114.73
2019-02-11T00:31:24.358Z,95123.46
2019-02-11T00:33:51.388Z,95119.06
2019-02-11T00:36:18.414Z,95126.82
2019-02-11T00:38:45.446Z,95124.10
2019-02-11T00:41:12.473Z,95116.11
2019-02-11T00:43:39.522Z,95126.62
2019-02-11T00:46:06.552Z,95127.63
2019-02-11T00:48:33.617Z,95128.73
2019-02-11T00:51:00.646Z,95132.15
2019-02-11T00:53:27.690Z,95125.72
2019-02-11T00:55:54.719Z,95116.70
2019-02-11T00:58:21.740Z,95119.22
2019-02-11T01:00:48.790Z,95117.56
2019-02-11T01:03:15.804Z,95114.90
2019-02-11T01:05:42.838Z,95114.41
2019-02-11T01:08:09.843Z,95119.88
2019-02-11T01:10:36.876Z,95123.23
2019-02-11T01:13:03.919Z,95131.97
2019-02-11T01:15:30.951Z,95127.16
2019-02-11T01:17:58.002Z,95126.24
2019-02-11T01:20:25.071Z,95124.91
2019-02-11T01:22:52.107Z,95128.39
2019-02-11T01:25:19.123Z,95133.59
2019-02-11T01:27:46.150Z,95134.22
2019-02-11T01:30:13.174Z,95140.29
2019-02-11T01:32:40.215Z,95140.94
2019-02-11T01:35:07.373Z,95137.75
2019-02-11T01:37:34.383Z,95147.06
2019-02-11T01:40:01.404Z,95157.20
2019-02-11T01:42:28.433Z,95148.40
2019-02-11T01:44:55.466Z,95149.73
2019-02-11T01:47:22.481Z,95148.11
2019-02-11T01:49:49.518Z,95142.20
2019-02-11T01:52:16.575Z,95136.59
2019-02-11T01:54:43.599Z,95150.67
2019-02-11T01:57:10.684Z,95144.19
2019-02-11T01:59:37.716Z,95148.64
2019-02-11T02:02:04.775Z,95152.28
2019-02-11T02:04:31.804Z,95145.20
2019-02-11T02:06:58.845Z,95149.68
2019-02-11T02:09:25.869Z,95153.84
2019-02-11T02:11:52.901Z,95157.77
2019-02-11T02:14:19.921Z,95156.20
2019-02-11T02:16:46.957Z,95155.63
2019-02-11T02:19:13.981Z,95153.64
2019-02-11T02:21:41.031Z,95159.03
2019-02-11T02:24:08.069Z,95159.09
2019-02-11T02:26:35.108Z,95157.77
2019-02-11T02:29:02.131Z,95168.41
2019-02-11T02:31:29.173Z,95160.87
2019-02-11T02:33:56.208Z,95169.89
2019-02-11T02:36:23.235Z,95173.59
2019-02-11T02:38:50.265Z,95178.69
2019-02-11T02:41:17.292Z,95177.42
2019-02-11T02:43:44.323Z,95176.97
2019-02-11T02:46:11.371Z,95169.58
2019-02-11T02:48:38.397Z,95172.17
2019-02-11T02:51:05.413Z,95166.78
2019-02-11T02:53:32.439Z,95172.55
2019-02-11T02:55:59.478Z,95181.06
2019-02-11T02:58:26.487Z,95177.13
2019-02-11T03:00:53.535Z,95194.13
2019-02-11T03:03:20.573Z,95192.80
2019-02-11T03:05:47.582Z,95187.19
2019-02-11T03:08:14.641Z,95199.16
2019-02-11T03:10:41.674Z,95213.05
2019-02-11T03:13:10.121Z,95215.72
2019-02-11T03:15:37.245Z,95212.69
2019-02-11T03:18:05.595Z,95228.06
2019-02-11T03:20:32.877Z,95225.48
2019-02-11T03:22:59.925Z,95232.35
2019-02-11T03:25:26.975Z,95234.39
2019-02-11T03:27:54.000Z,95239.86
2019-02-11T03:30:21.043Z,95239.86
2019-02-11T03:32:48.074Z,95248.43
2019-02-11T03:35:15.115Z,95238.60
2019-02-11T03:37:42.149Z,95251.98
2019-02-11T03:40:10.487Z,95267.87
2019-02-11T03:42:37.612Z,95263.40
2019-02-11T03:45:05.643Z,95263.02
2019-02-11T03:47:32.676Z,95262.13
2019-02-11T03:49:59.726Z,95275.72
2019-02-11T03:52:26.738Z,95269.77
2019-02-11T03:54:53.792Z,95265.48
2019-02-11T03:57:20.811Z,95265.48
2019-02-11T03:59:47.825Z,95268.39
2019-02-11T04:02:14.845Z,95274.69
2019-02-11T04:04:41.867Z,95270.11
2019-02-11T04:07:08.884Z,95280.61
2019-02-11T04:09:35.911Z,95260.00
2019-02-11T04:12:02.949Z,95270.83
2019-02-11T04:14:29.990Z,95268.68
2019-02-11T04:16:57.015Z,95278.73
2019-02-11T04:19:24.048Z,95285.67
2019-02-11T04:22:04.681Z,95284.13
2019-02-11T04:24:31.811Z,95282.13
2019-02-11T04:26:58.878Z,95277.41
2019-02-11T04:29:25.905Z,95293.70
2019-02-11T04:31:52.919Z,95291.48
2019-02-11T04:34:19.965Z,95298.20
2019-02-11T04:36:47.007Z,95281.68
2019-02-11T04:39:14.045Z,95290.76
2019-02-11T04:41:41.072Z,95304.19
2019-02-11T04:44:08.107Z,95306.43
2019-02-11T04:46:35.152Z,95303.91
2019-02-11T04:49:02.183Z,95297.34
2019-02-11T04:51:29.219Z,95310.64
2019-02-11T04:53:56.274Z,95316.09
2019-02-11T04:56:23.318Z,95329.30
2019-02-11T04:58:50.367Z,95319.64
2019-02-11T05:01:17.450Z,95329.31
2019-02-11T05:03:44.509Z,95334.64
2019-02-11T05:06:11.548Z,95335.23
2019-02-11T05:08:38.607Z,95332.41
2019-02-11T05:11:05.631Z,95331.54
2019-02-11T05:13:32.675Z,95325.03
2019-02-11T05:15:59.704Z,95325.25
2019-02-11T05:18:26.773Z,95333.75
2019-02-11T05:20:53.803Z,95346.66
2019-02-11T05:23:20.837Z,95354.63
2019-02-11T05:25:47.867Z,95354.49
2019-02-11T05:28:14.891Z,95357.23
2019-02-11T05:30:41.919Z,95355.81
2019-02-11T05:33:09.001Z,95368.30
2019-02-11T05:35:35.984Z,95375.32
2019-02-11T05:38:03.030Z,95370.22
2019-02-11T05:40:30.079Z,95380.55
2019-02-11T05:42:57.128Z,95389.48
2019-02-11T05:45:24.187Z,95400.92
2019-02-11T05:47:51.224Z,95392.14
2019-02-11T05:50:18.264Z,95399.08
2019-02-11T05:52:45.283Z,95397.67
2019-02-11T05:55:13.656Z,95388.58
2019-02-11T05:57:40.686Z,95409.98
2019-02-11T06:00:09.298Z,95403.71
2019-02-11T06:02:36.331Z,95409.89
2019-02-11T06:05:04.115Z,95409.42
2019-02-11T06:07:31.132Z,95410.82
2019-02-11T06:09:58.173Z,95421.48
2019-02-11T06:12:25.207Z,95419.84
2019-02-11T06:14:54.186Z,95423.05
2019-02-11T06:17:21.168Z,95435.63
2019-02-11T06:19:48.190Z,95430.48
2019-02-11T06:22:15.232Z,95437.72
2019-02-11T06:24:42.366Z,95438.92
2019-02-11T06:27:09.422Z,95447.50
2019-02-11T06:29:36.454Z,95453.00
2019-02-11T06:32:03.556Z,95463.42
2019-02-11T06:34:30.576Z,95479.03
2019-02-11T06:36:57.612Z,95481.09
2019-02-11T06:39:24.628Z,95484.64
2019-02-11T06:41:51.674Z,95491.08
2019-02-11T06:44:18.693Z,95486.16
2019-02-11T06:46:45.852Z,95490.91
2019-02-11T06:49:12.942Z,95493.63
2019-02-11T06:51:39.971Z,95501.86
2019-02-11T06:54:06.989Z,95501.98
2019-02-11T06:56:34.032Z,95514.69
2019-02-11T06:59:01.070Z,95533.86
2019-02-11T07:01:28.099Z,95535.41
2019-02-11T07:03:55.143Z,95535.16
2019-02-11T07:06:22.181Z,95535.83
2019-02-11T07:08:49.220Z,95554.20
2019-02-11T07:11:16.272Z,95553.23
2019-02-11T07:13:43.309Z,95562.54
2019-02-11T07:16:10.361Z,95560.60
2019-02-11T07:18:37.403Z,95584.36
2019-02-11T07:21:04.431Z,95584.45
2019-02-11T07:23:31.511Z,95590.47
2019-02-11T07:25:58.540Z,95592.73
2019-02-11T07:28:25.586Z,95592.64
2019-02-11T07:30:52.621Z,95600.99
2019-02-11T07:33:19.659Z,95626.59
2019-02-11T07:35:46.702Z,95623.02
2019-02-11T07:38:13.822Z,95627.19
2019-02-11T07:40:40.800Z,95631.37
2019-02-11T07:43:27.474Z,95638.50
2019-02-11T07:45:57.908Z,95643.80
2019-02-11T07:48:24.942Z,95651.95
2019-02-11T07:50:51.979Z,95662.76
2019-02-11T07:53:19.042Z,95667.05
2019-02-11T07:55:46.116Z,95670.33
2019-02-11T07:58:13.161Z,95675.63
2019-02-11T08:00:40.246Z,95682.58
2019-02-11T08:03:07.351Z,95696.46
2019-02-11T08:05:34.391Z,95695.63
2019-02-11T08:08:01.447Z,95705.94
2019-02-11T08:10:28.492Z,95708.29
2019-02-11T08:12:55.518Z,95709.09
2019-02-11T08:15:22.571Z,95710.92
2019-02-11T08:17:49.630Z,95701.24
2019-02-11T08:20:16.660Z,95716.35
2019-02-11T08:22:43.712Z,95715.83
2019-02-11T08:25:11.550Z,95721.96
2019-02-11T08:27:38.600Z,95744.12
2019-02-11T08:30:05.867Z,95733.50
2019-02-11T08:32:32.920Z,95744.42
2019-02-11T08:34:59.954Z,95747.17
2019-02-11T08:37:27.012Z,95757.88
2019-02-11T08:39:54.064Z,95767.64
2019-02-11T08:42:21.100Z,95777.64
2019-02-11T08:44:48.142Z,95777.02
2019-02-11T08:47:15.186Z,95785.56
2019-02-11T08:49:42.216Z,95802.58
2019-02-11T08:52:09.274Z,95794.54
2019-02-11T08:54:36.306Z,95801.48
2019-02-11T08:57:03.377Z,95808.81
2019-02-11T08:59:30.444Z,95818.59
2019-02-11T09:01:57.539Z,95815.95
2019-02-11T09:04:24.587Z,95825.42
2019-02-11T09:06:51.653Z,95833.26
2019-02-11T09:09:18.705Z,95830.02
2019-02-11T09:11:45.737Z,95840.28
2019-02-11T09:14:12.784Z,95853.84
2019-02-11T09:16:39.831Z,95853.22
2019-02-11T09:19:06.884Z,95854.94
2019-02-11T09:21:33.935Z,95860.23
2019-02-11T09:24:01.005Z,95857.70
2019-02-11T09:26:28.074Z,95866.36
2019-02-11T09:28:55.102Z,95870.22
2019-02-11T09:31:22.155Z,95869.52
2019-02-11T09:33:49.199Z,95884.41
2019-02-11T09:36:16.250Z,95887.68
2019-02-11T09:38:43.282Z,95880.98
2019-02-11T09:41:10.319Z,95896.92
2019-02-11T09:43:37.393Z,95903.56
2019-02-11T09:46:04.441Z,95910.42
2019-02-11T09:48:31.489Z,95909.73
2019-02-11T09:50:58.781Z,95913.20
2019-02-11T09:53:25.841Z,95914.21
2019-02-11T09:55:52.925Z,95919.32
2019-02-11T09:58:19.952Z,95920.02
2019-02-11T10:00:47.102Z,95927.48
2019-02-11T10:03:14.179Z,95933.02
2019-02-11T10:05:41.273Z,95940.70
2019-02-11T10:08:08.329Z,95953.47
2019-02-11T10:10:35.359Z,95959.52
2019-02-11T10:13:02.438Z,95961.78
2019-02-11T10:15:29.482Z,95965.98
2019-02-11T10:17:56.618Z,95965.91
2019-02-11T10:20:23.670Z,95977.03
2019-02-11T10:22:50.708Z,95981.22
2019-02-11T10:25:22.456Z,95982.23
2019-02-11T10:27:49.632Z,95985.19
2019-02-11T10:30:16.677Z,96001.31
2019-02-11T10:32:43.724Z,96000.09
2019-02-11T10:35:10.815Z,96002.13
2019-02-11T10:37:37.873Z,96011.10
2019-02-11T10:40:06.660Z,96006.80
2019-02-11T10:42:33.734Z,96014.34
2019-02-11T10:45:00.756Z,96027.41
2019-02-11T10:47:27.797Z,96029.44
2019-02-11T10:49:54.948Z,96036.84
2019-02-11T10:52:22.006Z,96038.59
2019-02-11T10:54:49.058Z,96038.37
2019-02-11T10:57:16.092Z,96037.46
2019-02-11T10:59:43.136Z,96039.67
2019-02-11T11:02:10.190Z,96043.53
2019-02-11T11:04:37.227Z,96043.97
2019-02-11T11:07:04.267Z,96047.75
2019-02-11T11:09:31.399Z,96055.73
2019-02-11T11:11:58.447Z,96052.07
2019-02-11T11:14:25.506Z,96054.02
2019-02-11T11:16:52.596Z,96055.66
2019-02-11T11:19:19.649Z,96057.38
2019-02-11T11:21:46.685Z,96058.48
2019-02-11T11:24:13.741Z,96061.64
2019-02-11T11:26:40.819Z,96059.69
2019-02-11T11:29:07.905Z,96068.34
2019-02-11T11:31:34.996Z,96073.72
2019-02-11T11:34:02.065Z,96066.77
2019-02-11T11:36:29.103Z,96072.14
2019-02-11T11:38:56.181Z,96071.95
2019-02-11T11:41:24.119Z,96068.29
2019-02-11T11:43:51.207Z,96067.91
2019-02-11T11:46:18.259Z,96079.34
2019-02-11T11:48:45.332Z,96080.78
2019-02-11T11:51:12.392Z,96086.22
2019-02-11T11:53:39.461Z,96088.05
2019-02-11T11:56:06.512Z,96102.31
2019-02-11T11:58:33.550Z,96101.25
2019-02-11T12:01:00.691Z,96100.17
2019-02-11T12:03:27.739Z,96105.16
2019-02-11T12:05:54.800Z,96105.77
2019-02-11T12:08:21.863Z,96105.95
2019-02-11T12:10:48.936Z,96106.45
2019-02-11T12:13:22.353Z,96108.16
2019-02-11T12:15:45.136Z,96113.78
2019-02-11T12:18:12.166Z,96117.88
2019-02-11T12:20:39.214Z,96121.35
2019-02-11T12:23:06.248Z,96124.04
2019-02-11T12:25:33.334Z,96132.94
2019-02-11T12:28:00.403Z,96136.36
2019-02-11T12:30:27.471Z,96131.49
2019-02-11T12:32:55.969Z,96138.34
2019-02-11T12:35:23.452Z,96140.30
2019-02-11T12:37:50.483Z,96143.90
2019-02-11T12:40:17.438Z,96147.81
2019-02-11T12:42:44.500Z,96154.63
2019-02-11T12:45:13.821Z,96157.09
2019-02-11T12:47:40.828Z,96156.84
2019-02-11T12:50:08.762Z,96162.02
2019-02-11T12:52:35.830Z,96164.36
2019-02-11T12:55:07.562Z,96168.24
2019-02-11T12:57:31.928Z,96174.30
2019-02-11T12:59:59.085Z,96175.31
2019-02-11T13:02:26.158Z,96179.92
2019-02-11T13:04:53.190Z,96170.33
2019-02-11T13:07:20.271Z,96187.88
2019-02-11T13:09:47.330Z,96188.83
2019-02-11T13:12:14.398Z,96191.02
2019-02-11T13:14:41.448Z,96194.55
2019-02-11T13:17:15.614Z,96195.00
2019-02-11T13:19:37.472Z,96201.82
2019-02-11T13:22:04.545Z,96207.88
2019-02-11T13:24:31.621Z,96214.25
2019-02-11T13:26:58.668Z,96219.56
2019-02-11T13:29:25.755Z,96238.84
2019-02-11T13:31:53.035Z,96234.48
2019-02-11T13:34:20.146Z,96243.95
2019-02-11T13:36:47.275Z,96255.19
2019-02-11T13:39:14.300Z,96245.09
2019-02-11T13:41:41.358Z,96251.72
2019-02-11T13:44:11.710Z,96254.23
2019-02-11T13:46:44.026Z,96256.39
2019-02-11T13:49:11.101Z,96271.93
2019-02-11T13:51:38.214Z,96276.41
2019-02-11T13:54:05.285Z,96287.66
2019-02-11T13:56:32.585Z,96279.97
2019-02-11T13:58:59.651Z,96293.28
2019-02-11T14:01:26.710Z,96294.98
2019-02-11T14:03:53.767Z,96308.92
2019-02-11T14:06:20.858Z,96312.95
2019-02-11T14:08:47.925Z,96316.48
2019-02-11T14:11:15.687Z,96331.38
2019-02-11T14:14:00.537Z,96337.64
2019-02-11T14:16:11.741Z,96338.09
2019-02-11T14:18:38.830Z,96332.93
2019-02-11T14:21:06.026Z,96336.45
2019-02-11T14:23:33.162Z,96355.16
2019-02-11T14:26:00.219Z,96359.41
2019-02-11T14:28:27.331Z,96357.77
2019-02-11T14:30:54.404Z,96361.42
2019-02-11T14:33:21.514Z,96366.55
2019-02-11T14:35:48.592Z,96367.55
2019-02-11T14:38:15.677Z,96368.19
2019-02-11T14:40:42.817Z,96371.16
2019-02-11T14:43:09.999Z,96378.62
2019-02-11T14:45:37.182Z,96386.71
2019-02-11T14:48:04.290Z,96388.67
2019-02-11T14:50:31.361Z,96397.01
2019-02-11T14:52:58.429Z,96405.23
2019-02-11T14:57:59.346Z,96401.84
2019-02-11T15:00:26.461Z,96410.77
2019-02-11T15:02:53.528Z,96415.86
2019-02-11T15:05:20.609Z,96421.88
2019-02-11T15:07:47.712Z,96429.20
2019-02-11T15:10:15.453Z,96429.84
2019-02-11T15:12:42.540Z,96427.52
2019-02-11T15:15:09.599Z,96436.34
2019-02-11T15:17:37.242Z,96435.70
2019-02-11T15:20:05.795Z,96436.58
2019-02-11T15:22:32.894Z,96440.80
2019-02-11T15:24:59.976Z,96443.81
2019-02-11T15:27:27.084Z,96453.50
2019-02-11T15:29:54.175Z,96465.18
2019-02-11T15:32:21.231Z,96467.77
2019-02-11T15:34:50.346Z,96478.11
2019-02-11T15:37:17.414Z,96471.20
2019-02-11T15:39:44.502Z,96477.88
2019-02-11T15:42:11.582Z,96474.61
2019-02-11T15:44:38.689Z,96482.74
2019-02-11T15:47:06.284Z,96493.03
2019-02-11T15:49:33.763Z,96488.73
2019-02-11T15:52:00.866Z,96496.88
2019-02-11T15:54:27.964Z,96510.45
2019-02-11T15:56:55.094Z,96509.34
2019-02-11T15:59:22.159Z,96506.23
2019-02-11T16:01:49.612Z,96515.19
2019-02-11T16:04:16.765Z,96526.48
2019-02-11T16:06:43.827Z,96538.09
2019-02-11T16:09:10.933Z,96536.97
2019-02-11T16:11:38.060Z,96542.78
2019-02-11T16:14:05.127Z,96533.31
2019-02-11T16:16:32.263Z,96551.34
2019-02-11T16:18:59.373Z,96546.25
2019-02-11T16:21:26.503Z,96545.75
2019-02-11T16:23:53.629Z,96562.17
2019-02-11T16:26:21.844Z,96566.17
2019-02-11T16:28:48.953Z,96572.98
2019-02-11T16:31:16.057Z,96583.27
2019-02-11T16:33:43.153Z,96586.92
2019-02-11T16:36:10.262Z,96580.61
2019-02-11T16:38:37.380Z,96586.42
2019-02-11T16:41:04.513Z,96586.42
2019-02-11T16:43:31.644Z,96591.72
2019-02-11T16:45:58.767Z,96595.70
2019-02-11T16:48:25.904Z,96596.52
2019-02-11T16:50:53.082Z,96605.80
2019-02-11T16:53:20.218Z,96610.28
2019-02-11T16:55:47.426Z,96610.28
2019-02-11T16:58:14.574Z,96614.44
2019-02-11T17:00:41.702Z,96612.11
2019-02-11T17:03:08.833Z,96617.23
2019-02-11T17:05:35.964Z,96622.21
2019-02-11T17:08:03.100Z,96625.55
2019-02-11T17:10:30.239Z,96623.56
2019-02-11T17:12:57.384Z,96622.74
2019-02-11T17:15:24.513Z,96638.65
2019-02-11T17:17:51.651Z,96640.98
2019-02-11T17:20:18.785Z,96652.73
2019-02-11T17:22:45.935Z,96658.53
2019-02-11T17:25:16.764Z,96653.23
2019-02-11T17:27:43.911Z,96662.16
2019-02-11T17:30:13.671Z,96657.53
2019-02-11T17:32:41.864Z,96660.84
2019-02-11T17:35:09.112Z,96664.64
2019-02-11T17:37:36.271Z,96671.59
2019-02-11T17:40:04.441Z,96675.57
2019-02-11T17:42:31.577Z,96673.25
2019-02-11T17:44:58.744Z,96671.42
2019-02-11T17:47:27.640Z,96686.50
2019-02-11T17:49:54.768Z,96700.94
2019-02-11T17:52:22.194Z,96706.73
2019-02-11T17:54:49.285Z,96707.91
2019-02-11T17:57:16.452Z,96708.27
2019-02-11T17:59:43.558Z,96713.56
2019-02-11T18:02:13.474Z,96711.26
2019-02-11T18:04:40.808Z,96710.14
2019-02-11T18:07:09.718Z,96701.86
2019-02-11T18:09:39.134Z,96707.66
2019-02-11T18:12:06.247Z,96709.16
2019-02-11T18:14:33.456Z,96710.16
2019-02-11T18:17:00.622Z,96706.51
2019-02-11T18:19:27.813Z,96714.96
2019-02-11T18:21:54.969Z,96721.59
2019-02-11T18:24:22.787Z,96724.56
2019-02-11T18:26:50.874Z,96726.22
2019-02-11T18:29:18.457Z,96728.70
2019-02-11T18:31:45.617Z,96726.38
2019-02-11T18:34:13.777Z,96727.99
2019-02-11T18:36:41.374Z,96731.80
2019-02-11T18:39:08.559Z,96718.04
2019-02-11T18:41:36.161Z,96721.84
2019-02-11T18:44:04.516Z,96733.27
2019-02-11T18:46:32.215Z,96724.47
2019-02-11T18:48:59.459Z,96727.45
2019-02-11T18:51:27.760Z,96726.13
2019-02-11T18:53:56.144Z,96731.44
2019-02-11T18:56:23.574Z,96735.41
2019-02-11T18:58:52.392Z,96734.97
2019-02-11T19:01:19.692Z,96737.92
2019-02-11T19:03:49.831Z,96737.57
2019-02-11T19:06:17.202Z,96741.13
2019-02-11T19:08:45.737Z,96728.94
2019-02-11T19:11:13.680Z,96725.36
2019-02-11T19:13:41.379Z,96739.23
2019-02-11T19:16:09.181Z,96743.38
2019-02-11T19:18:36.568Z,96744.97
2019-02-11T19:21:04.102Z,96751.70
2019-02-11T19:23:31.871Z,96754.91
2019-02-11T19:25:59.133Z,96761.63
2019-02-11T19:28:26.649Z,96767.13
2019-02-11T19:30:54.735Z,96768.30
2019-02-11T19:33:22.335Z,96769.47
2019-02-11T19:35:50.692Z,96773.49
2019-02-11T19:38:18.526Z,96787.75
2019-02-11T19:40:46.391Z,96783.45
2019-02-11T19:43:14.008Z,96798.86
2019-02-11T19:45:41.772Z,96798.69
2019-02-11T19:48:12.293Z,96794.55
2019-02-11T19:50:40.061Z,96794.57
2019-02-11T19:53:07.595Z,96783.50
2019-02-11T19:55:35.176Z,96807.25
2019-02-11T19:58:02.935Z,96805.44
2019-02-11T20:00:32.016Z,96811.58
2019-02-11T20:03:00.032Z,96816.56
2019-02-11T20:05:29.351Z,96819.09
2019-02-11T20:07:56.660Z,96818.11
2019-02-11T20:10:24.714Z,96812.32
2019-02-11T20:12:53.764Z,96829.38
2019-02-11T20:15:22.036Z,96827.07
2019-02-11T20:17:49.792Z,96827.73
2019-02-11T20:20:20.822Z,96833.03
2019-02-11T20:22:54.471Z,96845.29
2019-02-11T20:25:24.683Z,96835.02
2019-02-11T20:27:53.575Z,96838.83
2019-02-11T20:30:23.690Z,96843.13
2019-02-11T20:32:51.893Z,96846.11
2019-02-11T20:35:33.758Z,96856.71
2019-02-11T20:38:03.313Z,96857.04
2019-02-11T20:40:31.354Z,96852.07
2019-02-11T20:43:02.596Z,96862.83
2019-02-11T20:45:31.154Z,96866.81
2019-02-11T20:47:58.793Z,96877.91
2019-02-11T20:50:26.364Z,96880.39
2019-02-11T20:52:55.777Z,96873.27
2019-02-11T20:55:24.617Z,96871.11
2019-02-11T20:57:53.357Z,96873.44
2019-02-11T21:00:24.153Z,96865.48
2019-02-11T21:02:53.353Z,96877.73
2019-02-11T21:05:20.815Z,96879.06
2019-02-11T21:07:48.016Z,96894.14
2019-02-11T21:10:15.548Z,96907.22
2019-02-11T21:12:42.768Z,96910.49
2019-02-11T21:15:13.522Z,96904.69
2019-02-11T21:17:40.701Z,96910.83
2019-02-11T21:20:17.384Z,96930.37
2019-02-11T21:22:41.840Z,96935.00
2019-02-11T21:25:09.231Z,96959.20
2019-02-11T21:27:36.788Z,96960.86
2019-02-11T21:30:04.921Z,96966.19
2019-02-11T21:32:32.066Z,96960.72
2019-02-11T21:34:59.205Z,96970.83
2019-02-11T21:37:26.354Z,96969.86
2019-02-11T21:39:53.489Z,96975.49
2019-02-11T21:42:20.629Z,96971.52
2019-02-11T21:44:47.765Z,96977.31
2019-02-11T21:47:14.890Z,96979.62
2019-02-11T21:49:42.073Z,96976.31
2019-02-11T21:52:09.210Z,96979.12
2019-02-11T21:54:36.325Z,96974.66
2019-02-11T21:57:03.475Z,96976.98
2019-02-11T21:59:30.585Z,96984.93
2019-02-11T22:01:57.754Z,96981.45
2019-02-11T22:04:24.844Z,96985.09
2019-02-11T22:06:51.948Z,96998.67
2019-02-11T22:09:19.044Z,96998.02
2019-02-11T22:11:46.495Z,96989.73
2019-02-11T22:14:13.583Z,96991.72
2019-02-11T22:16:40.686Z,96995.00
2019-02-11T22:19:07.825Z,96996.00
2019-02-11T22:21:34.907Z,97008.92
2019-02-11T22:24:01.987Z,97007.77
2019-02-11T22:26:29.063Z,97017.53
2019-02-11T22:28:56.159Z,97017.53
2019-02-11T22:31:23.207Z,97021.17
2019-02-11T22:33:50.276Z,97011.73
2019-02-11T22:36:17.323Z,97022.83
2019-02-11T22:38:44.399Z,97027.00
2019-02-11T22:41:11.505Z,97030.97
2019-02-11T22:43:38.586Z,97030.14
2019-02-11T22:46:05.652Z,97025.83
2019-02-11T22:48:32.795Z,97026.33
2019-02-11T22:50:59.819Z,97034.44
2019-02-11T22:53:26.872Z,97032.61
2019-02-11T22:55:53.949Z,97034.26
2019-02-11T22:58:21.051Z,97035.25
2019-02-11T23:00:56.054Z,97038.06
2019-02-11T23:03:23.115Z,97043.05
2019-02-11T23:05:50.187Z,97049.32
2019-02-11T23:08:17.213Z,97048.64
2019-02-11T23:10:44.270Z,97048.13
2019-02-11T23:13:11.305Z,97047.32
2019-02-11T23:15:38.359Z,97048.14
2019-02-11T23:18:05.611Z,97046.66
2019-02-11T23:20:32.677Z,97047.64
2019-02-11T23:22:59.737Z,97046.66
2019-02-11T23:25:26.811Z,97051.61
2019-02-11T23:27:53.887Z,97056.91
2019-02-11T23:30:20.937Z,97059.72
2019-02-11T23:32:48.210Z,97069.81
2019-02-11T23:35:15.263Z,97068.83
2019-02-11T23:37:42.329Z,97073.47
2019-02-11T23:40:12.575Z,97075.95
2019-02-11T23:42:39.617Z,97075.63
2019-02-11T23:45:06.806Z,97086.70
2019-02-11T23:47:33.871Z,97092.32
2019-02-11T23:50:00.974Z,97093.80
2019-02-11T23:52:28.051Z,97098.92
2019-02-11T23:54:55.095Z,97086.17
2019-02-11T23:57:22.132Z,97098.08
2019-02-11T23:59:49.184Z,97101.22
